createdAt,value
2019-03-28T00:00:29.285Z,8.40
2019-03-28T00:02:57.720Z,8.30
2019-03-28T00:05:26.148Z,8.30
2019-03-28T00:07:54.580Z,8.30
2019-03-28T00:10:23.008Z,8.40
2019-03-28T00:12:51.445Z,8.40
2019-03-28T00:15:19.869Z,8.70
2019-03-28T00:17:48.301Z,8.60
2019-03-28T00:20:16.739Z,8.50
2019-03-28T00:22:49.782Z,8.40
2019-03-28T00:25:19.486Z,8.30
2019-03-28T00:27:47.921Z,8.30
2019-03-28T00:30:18.024Z,8.30
2019-03-28T00:32:46.452Z,8.30
2019-03-28T00:35:14.885Z,8.30
2019-03-28T00:37:43.325Z,8.30
2019-03-28T00:40:11.812Z,8.30
2019-03-28T00:42:40.249Z,8.30
2019-03-28T00:45:09.417Z,8.30
2019-03-28T00:47:37.857Z,8.30
2019-03-28T00:50:08.290Z,8.20
2019-03-28T00:52:36.820Z,8.20
2019-03-28T00:55:06.957Z,8.20
2019-03-28T00:57:35.384Z,8.20
2019-03-28T01:00:04.849Z,8.20
2019-03-28T01:02:33.281Z,8.20
2019-03-28T01:05:01.725Z,8.20
2019-03-28T01:07:30.161Z,8.20
2019-03-28T01:09:58.589Z,8.20
2019-03-28T01:12:27.367Z,8.10
2019-03-28T01:14:55.928Z,8.20
2019-03-28T01:17:24.362Z,8.20
2019-03-28T01:19:52.797Z,8.10
2019-03-28T01:22:21.224Z,8.10
2019-03-28T01:24:49.656Z,8.10
2019-03-28T01:27:18.093Z,8.10
2019-03-28T01:29:46.825Z,8.10
2019-03-28T01:32:15.261Z,8.10
2019-03-28T01:34:43.697Z,8.10
2019-03-28T01:37:12.121Z,8.10
2019-03-28T01:39:40.560Z,8.10
2019-03-28T01:42:08.983Z,8.10
2019-03-28T01:44:37.426Z,8.10
2019-03-28T01:47:05.845Z,8.10
2019-03-28T01:49:34.284Z,8.10
2019-03-28T01:52:04.303Z,8.10
2019-03-28T01:54:33.032Z,8.20
2019-03-28T01:57:10.952Z,8.20
2019-03-28T01:59:31.644Z,8.20
2019-03-28T02:02:00.060Z,8.10
2019-03-28T02:04:28.496Z,8.20
2019-03-28T02:06:57.008Z,8.10
2019-03-28T02:09:25.422Z,8.10
2019-03-28T02:11:54.161Z,8.10
2019-03-28T02:14:22.593Z,8.10
2019-03-28T02:16:51.036Z,8.20
2019-03-28T02:19:19.598Z,8.10
2019-03-28T02:21:48.072Z,8.10
2019-03-28T02:24:16.510Z,8.10
2019-03-28T02:26:44.962Z,8.10
2019-03-28T02:29:13.445Z,8.10
2019-03-28T02:31:42.942Z,8.10
2019-03-28T02:34:11.789Z,8.10
2019-03-28T02:36:40.220Z,8.10
2019-03-28T02:39:08.656Z,8.10
2019-03-28T02:41:37.076Z,8.10
2019-03-28T02:44:05.522Z,8.10
2019-03-28T02:46:33.971Z,8.10
2019-03-28T02:49:02.478Z,8.10
2019-03-28T02:51:30.900Z,8.00
2019-03-28T02:53:59.328Z,8.10
2019-03-28T02:56:27.766Z,8.00
2019-03-28T02:58:56.214Z,8.00
2019-03-28T03:01:24.679Z,8.00
2019-03-28T03:03:53.370Z,8.00
2019-03-28T03:06:21.860Z,8.00
2019-03-28T03:08:50.338Z,8.00
2019-03-28T03:11:18.835Z,8.00
2019-03-28T03:13:47.591Z,8.00
2019-03-28T03:16:16.031Z,8.00
2019-03-28T03:18:44.446Z,8.00
2019-03-28T03:21:12.892Z,8.00
2019-03-28T03:23:41.306Z,8.00
2019-03-28T03:26:09.736Z,8.00
2019-03-28T03:28:38.174Z,8.00
2019-03-28T03:31:06.620Z,8.00
2019-03-28T03:33:37.104Z,8.00
2019-03-28T03:36:05.191Z,8.00
2019-03-28T03:38:33.653Z,8.00
2019-03-28T03:41:02.420Z,8.00
2019-03-28T03:43:31.018Z,8.10
2019-03-28T03:45:59.796Z,8.00
2019-03-28T03:48:28.220Z,8.00
2019-03-28T03:50:56.669Z,8.00
2019-03-28T03:53:25.089Z,8.00
2019-03-28T03:55:53.599Z,8.10
2019-03-28T03:58:22.094Z,8.00
2019-03-28T04:00:50.587Z,8.00
2019-03-28T04:03:19.045Z,8.00
2019-03-28T04:05:47.495Z,8.00
2019-03-28T04:08:16.203Z,8.00
2019-03-28T04:10:44.643Z,8.00
2019-03-28T04:13:13.073Z,8.00
2019-03-28T04:15:41.509Z,8.10
2019-03-28T04:18:09.950Z,8.10
2019-03-28T04:20:38.397Z,8.10
2019-03-28T04:23:06.881Z,8.10
2019-03-28T04:25:35.327Z,8.10
2019-03-28T04:28:03.759Z,8.10
2019-03-28T04:30:32.265Z,8.10
2019-03-28T04:33:00.703Z,8.10
2019-03-28T04:35:29.152Z,8.10
2019-03-28T04:37:58.608Z,8.10
2019-03-28T04:40:27.297Z,8.00
2019-03-28T04:42:55.733Z,8.00
2019-03-28T04:45:24.158Z,8.10
2019-03-28T04:47:52.585Z,8.10
2019-03-28T04:50:21.292Z,8.10
2019-03-28T04:52:52.690Z,8.10
2019-03-28T04:55:19.893Z,8.10
2019-03-28T04:57:48.327Z,8.10
2019-03-28T05:00:17.394Z,8.10
2019-03-28T05:02:46.209Z,8.10
2019-03-28T05:05:14.761Z,8.10
2019-03-28T05:07:43.290Z,8.10
2019-03-28T05:10:11.705Z,8.10
2019-03-28T05:12:40.141Z,8.10
2019-03-28T05:15:10.477Z,8.10
2019-03-28T05:17:38.915Z,8.10
2019-03-28T05:20:07.669Z,8.10
2019-03-28T05:22:36.605Z,8.10
2019-03-28T05:25:06.167Z,8.10
2019-03-28T05:27:34.606Z,8.10
2019-03-28T05:30:06.500Z,8.10
2019-03-28T05:32:34.220Z,8.10
2019-03-28T05:35:02.645Z,8.10
2019-03-28T05:37:31.126Z,8.10
2019-03-28T05:39:59.543Z,8.10
2019-03-28T05:42:27.981Z,8.20
2019-03-28T05:44:56.428Z,8.20
2019-03-28T05:47:24.981Z,8.20
2019-03-28T05:49:53.576Z,8.20
2019-03-28T05:52:22.081Z,8.20
2019-03-28T05:54:50.521Z,8.20
2019-03-28T05:57:19.282Z,8.20
2019-03-28T05:59:47.717Z,8.30
2019-03-28T06:02:16.141Z,8.20
2019-03-28T06:04:44.580Z,8.30
2019-03-28T06:07:13.004Z,8.30
2019-03-28T06:09:41.436Z,8.20
2019-03-28T06:12:09.890Z,8.20
2019-03-28T06:14:38.413Z,8.20
2019-03-28T06:17:06.865Z,8.30
2019-03-28T06:19:35.305Z,8.30
2019-03-28T06:22:03.737Z,8.30
2019-03-28T06:24:32.168Z,8.30
2019-03-28T06:27:00.596Z,8.30
2019-03-28T06:29:29.117Z,8.30
2019-03-28T06:31:57.698Z,8.30
2019-03-28T06:34:26.561Z,8.30
2019-03-28T06:36:55.193Z,8.30
2019-03-28T06:39:23.636Z,8.30
2019-03-28T06:41:52.070Z,8.30
2019-03-28T06:44:20.506Z,8.40
2019-03-28T06:46:48.933Z,8.40
2019-03-28T06:49:17.372Z,8.40
2019-03-28T06:51:45.791Z,8.30
2019-03-28T06:54:14.223Z,8.20
2019-03-28T06:56:43.388Z,8.30
2019-03-28T06:59:12.175Z,8.30
2019-03-28T07:01:40.592Z,8.40
2019-03-28T07:04:09.021Z,8.40
2019-03-28T07:06:37.478Z,8.30
2019-03-28T07:09:08.253Z,8.30
2019-03-28T07:11:36.746Z,8.40
2019-03-28T07:14:05.191Z,8.40
2019-03-28T07:16:33.737Z,8.50
2019-03-28T07:19:02.179Z,8.50
2019-03-28T07:21:30.885Z,8.60
2019-03-28T07:23:59.352Z,8.60
2019-03-28T07:26:27.787Z,8.70
2019-03-28T07:28:56.210Z,8.70
2019-03-28T07:31:24.789Z,8.60
2019-03-28T07:33:53.271Z,8.60
2019-03-28T07:36:21.716Z,8.70
2019-03-28T07:38:50.149Z,8.70
2019-03-28T07:41:18.627Z,8.80
2019-03-28T07:43:48.952Z,8.80
2019-03-28T07:46:24.113Z,8.80
2019-03-28T07:48:52.667Z,8.80
2019-03-28T07:51:21.136Z,8.90
2019-03-28T07:53:49.617Z,8.90
2019-03-28T07:56:18.053Z,8.90
2019-03-28T07:58:46.483Z,8.90
2019-03-28T08:01:17.951Z,8.90
2019-03-28T08:03:45.118Z,8.80
2019-03-28T08:06:13.597Z,8.80
2019-03-28T08:08:44.174Z,8.90
2019-03-28T08:11:12.262Z,9.00
2019-03-28T08:13:40.746Z,9.00
2019-03-28T08:16:09.189Z,9.00
2019-03-28T08:18:38.615Z,9.10
2019-03-28T08:21:07.053Z,9.10
2019-03-28T08:23:35.638Z,9.20
2019-03-28T08:26:04.091Z,9.10
2019-03-28T08:28:32.562Z,9.10
2019-03-28T08:31:00.985Z,9.20
2019-03-28T08:33:29.509Z,9.30
2019-03-28T08:35:58.313Z,9.30
2019-03-28T08:38:27.331Z,9.30
2019-03-28T08:40:55.799Z,9.30
2019-03-28T08:43:24.450Z,9.30
2019-03-28T08:45:52.953Z,9.30
2019-03-28T08:48:21.410Z,9.20
2019-03-28T08:50:49.924Z,9.30
2019-03-28T08:53:18.389Z,9.40
2019-03-28T08:55:46.842Z,9.40
2019-03-28T08:58:15.405Z,9.40
2019-03-28T09:00:52.260Z,9.50
2019-03-28T09:03:14.013Z,9.50
2019-03-28T09:05:42.444Z,9.60
2019-03-28T09:08:10.888Z,9.60
2019-03-28T09:10:39.323Z,9.80
2019-03-28T09:13:07.757Z,10.00
2019-03-28T09:15:43.672Z,10.00
2019-03-28T09:18:06.391Z,9.90
2019-03-28T09:20:34.840Z,9.90
2019-03-28T09:23:03.362Z,10.00
2019-03-28T09:25:31.789Z,10.00
2019-03-28T09:28:00.238Z,10.00
2019-03-28T09:30:48.080Z,10.10
2019-03-28T09:33:10.345Z,10.10
2019-03-28T09:35:38.895Z,10.20
2019-03-28T09:38:07.607Z,10.30
2019-03-28T09:40:36.034Z,10.40
2019-03-28T09:43:04.649Z,10.50
2019-03-28T09:45:33.077Z,10.50
2019-03-28T09:48:01.541Z,10.60
2019-03-28T09:50:29.976Z,10.70
2019-03-28T09:52:58.530Z,10.90
2019-03-28T09:55:26.970Z,10.90
2019-03-28T09:57:55.420Z,11.00
2019-03-28T10:00:23.923Z,11.00
2019-03-28T10:02:52.380Z,11.10
2019-03-28T10:05:20.812Z,11.00
2019-03-28T10:07:49.258Z,11.00
2019-03-28T10:10:17.803Z,10.90
2019-03-28T10:12:46.225Z,10.90
2019-03-28T10:15:14.923Z,10.90
2019-03-28T10:17:43.337Z,10.80
2019-03-28T10:20:12.644Z,10.70
2019-03-28T10:22:41.075Z,10.70
2019-03-28T10:25:12.640Z,10.60
2019-03-28T10:27:40.208Z,10.60
2019-03-28T10:30:09.675Z,10.60
2019-03-28T10:32:38.125Z,10.60
2019-03-28T10:35:07.339Z,10.70
2019-03-28T10:37:35.869Z,10.80
2019-03-28T10:40:07.268Z,10.90
2019-03-28T10:42:35.711Z,11.00
2019-03-28T10:45:08.205Z,11.10
2019-03-28T10:47:36.634Z,11.10
2019-03-28T10:50:07.051Z,11.20
2019-03-28T10:52:35.490Z,11.30
2019-03-28T10:55:04.670Z,11.30
2019-03-28T10:57:33.113Z,11.30
2019-03-28T11:00:01.567Z,11.40
2019-03-28T11:02:30.081Z,11.60
2019-03-28T11:04:58.552Z,11.70
2019-03-28T11:07:26.989Z,11.70
2019-03-28T11:09:55.444Z,11.70
2019-03-28T11:12:23.877Z,11.70
2019-03-28T11:14:52.330Z,11.70
2019-03-28T11:17:21.768Z,11.80
2019-03-28T11:19:50.477Z,12.00
2019-03-28T11:22:19.045Z,12.00
2019-03-28T11:24:47.493Z,12.00
2019-03-28T11:27:16.312Z,11.90
2019-03-28T11:29:44.749Z,11.90
2019-03-28T11:32:13.186Z,11.90
2019-03-28T11:34:41.702Z,11.90
2019-03-28T11:37:24.975Z,11.90
2019-03-28T11:39:41.449Z,12.00
2019-03-28T11:42:10.249Z,12.00
2019-03-28T11:44:38.709Z,12.00
2019-03-28T11:47:07.138Z,12.00
2019-03-28T11:49:35.576Z,12.00
2019-03-28T11:52:04.010Z,11.90
2019-03-28T11:54:32.468Z,11.90
2019-03-28T11:57:00.913Z,11.80
2019-03-28T11:59:29.358Z,11.80
2019-03-28T12:02:00.600Z,11.70
2019-03-28T12:04:28.001Z,11.60
2019-03-28T12:06:56.502Z,11.50
2019-03-28T12:09:24.969Z,11.50
2019-03-28T12:11:53.518Z,11.50
2019-03-28T12:14:21.989Z,11.40
2019-03-28T12:16:50.433Z,11.40
2019-03-28T12:19:18.857Z,11.50
2019-03-28T12:21:47.390Z,11.40
2019-03-28T12:24:16.717Z,11.30
2019-03-28T12:26:45.228Z,11.20
2019-03-28T12:29:13.746Z,11.20
2019-03-28T12:31:42.531Z,11.20
2019-03-28T12:34:10.953Z,11.20
2019-03-28T12:36:39.420Z,11.20
2019-03-28T12:39:07.902Z,11.30
2019-03-28T12:41:36.375Z,11.40
2019-03-28T12:44:04.837Z,11.40
2019-03-28T12:46:33.284Z,11.40
2019-03-28T12:49:01.723Z,11.40
2019-03-28T12:51:30.201Z,11.50
2019-03-28T12:53:58.647Z,11.50
2019-03-28T12:56:27.091Z,11.50
2019-03-28T12:58:55.625Z,11.60
2019-03-28T13:01:24.598Z,11.50
2019-03-28T13:03:53.490Z,11.60
2019-03-28T13:06:21.948Z,11.50
2019-03-28T13:08:50.405Z,11.50
2019-03-28T13:11:19.578Z,11.60
2019-03-28T13:13:48.377Z,11.60
2019-03-28T13:16:16.826Z,11.50
2019-03-28T13:18:45.611Z,11.50
2019-03-28T13:21:14.362Z,11.50
2019-03-28T13:23:42.968Z,11.50
2019-03-28T13:26:11.417Z,11.60
2019-03-28T13:28:39.865Z,11.80
2019-03-28T13:31:08.366Z,11.80
2019-03-28T13:33:36.798Z,11.90
2019-03-28T13:36:05.233Z,11.90
2019-03-28T13:38:33.700Z,12.00
2019-03-28T13:41:02.166Z,11.90
2019-03-28T13:43:30.939Z,12.00
2019-03-28T13:45:59.736Z,12.10
2019-03-28T13:48:28.182Z,12.10
2019-03-28T13:50:56.659Z,12.20
2019-03-28T13:53:38.346Z,12.20
2019-03-28T13:55:55.709Z,12.30
2019-03-28T13:58:24.181Z,12.10
2019-03-28T14:00:54.553Z,12.00
2019-03-28T14:03:22.805Z,12.00
2019-03-28T14:05:51.227Z,11.90
2019-03-28T14:08:19.675Z,11.80
2019-03-28T14:10:48.210Z,11.70
2019-03-28T14:13:16.657Z,11.80
2019-03-28T14:15:45.207Z,11.90
2019-03-28T14:18:13.708Z,12.00
2019-03-28T14:20:44.146Z,12.00
2019-03-28T14:23:12.584Z,12.10
2019-03-28T14:25:41.087Z,11.90
2019-03-28T14:28:09.525Z,11.90
2019-03-28T14:30:39.541Z,12.00
2019-03-28T14:33:11.627Z,11.90
2019-03-28T14:35:38.777Z,11.80
2019-03-28T14:38:07.237Z,11.80
2019-03-28T14:40:36.082Z,11.80
2019-03-28T14:43:04.528Z,11.80
2019-03-28T14:45:32.966Z,11.70
2019-03-28T14:48:01.410Z,11.80
2019-03-28T14:50:35.673Z,11.80
2019-03-28T14:53:04.573Z,11.90
2019-03-28T14:55:35.109Z,11.90
2019-03-28T14:58:05.138Z,12.70
2019-03-28T15:00:53.444Z,11.90
2019-03-28T15:03:27.015Z,11.80
2019-03-28T15:05:52.382Z,11.70
2019-03-28T15:08:20.835Z,11.70
2019-03-28T15:10:49.290Z,11.60
2019-03-28T15:13:17.963Z,11.50
2019-03-28T15:15:46.422Z,11.60
2019-03-28T15:18:14.990Z,11.70
2019-03-28T15:20:43.448Z,11.80
2019-03-28T15:23:11.884Z,11.90
2019-03-28T15:25:40.321Z,12.00
2019-03-28T15:28:09.158Z,12.10
2019-03-28T15:30:37.609Z,12.00
2019-03-28T15:33:06.033Z,11.90
2019-03-28T15:35:34.487Z,11.90
2019-03-28T15:38:03.037Z,11.90
2019-03-28T15:40:31.484Z,11.90
2019-03-28T15:43:00.262Z,12.00
2019-03-28T15:45:28.750Z,12.00
2019-03-28T15:47:57.176Z,12.00
2019-03-28T15:50:25.631Z,11.90
2019-03-28T15:52:54.572Z,12.00
2019-03-28T15:55:23.038Z,11.90
2019-03-28T15:57:51.521Z,12.00
2019-03-28T16:00:20.130Z,12.00
2019-03-28T16:02:48.615Z,11.90
2019-03-28T16:05:17.090Z,11.90
2019-03-28T16:07:45.513Z,12.00
2019-03-28T16:10:15.206Z,12.00
2019-03-28T16:12:43.796Z,11.90
2019-03-28T16:15:12.943Z,11.90
2019-03-28T16:17:41.369Z,11.90
2019-03-28T16:20:09.936Z,11.90
2019-03-28T16:22:38.392Z,12.00
2019-03-28T16:25:07.659Z,12.00
2019-03-28T16:27:36.161Z,11.90
2019-03-28T16:30:07.695Z,11.90
2019-03-28T16:32:36.143Z,11.90
2019-03-28T16:35:07.044Z,11.90
2019-03-28T16:37:35.465Z,11.80
2019-03-28T16:40:05.917Z,11.80
2019-03-28T16:42:34.345Z,11.90
2019-03-28T16:45:03.153Z,11.90
2019-03-28T16:47:31.662Z,11.80
2019-03-28T16:50:00.127Z,11.70
2019-03-28T16:52:28.768Z,11.70
2019-03-28T16:54:57.218Z,11.70
2019-03-28T16:57:25.697Z,11.70
2019-03-28T16:59:54.997Z,11.70
2019-03-28T17:02:23.437Z,11.60
2019-03-28T17:04:51.913Z,11.60
2019-03-28T17:07:20.521Z,11.60
2019-03-28T17:09:49.497Z,11.60
2019-03-28T17:12:17.964Z,11.60
2019-03-28T17:14:46.401Z,11.50
2019-03-28T17:17:14.834Z,11.40
2019-03-28T17:19:43.260Z,11.40
2019-03-28T17:22:11.741Z,11.40
2019-03-28T17:24:40.169Z,11.40
2019-03-28T17:27:08.606Z,11.30
2019-03-28T17:29:37.049Z,11.30
2019-03-28T17:32:05.547Z,11.30
2019-03-28T17:34:35.329Z,11.30
2019-03-28T17:37:04.173Z,11.30
2019-03-28T17:39:32.634Z,11.30
2019-03-28T17:42:01.128Z,11.30
2019-03-28T17:44:29.578Z,11.30
2019-03-28T17:46:58.074Z,11.30
2019-03-28T17:49:26.509Z,11.30
2019-03-28T17:51:55.325Z,11.20
2019-03-28T17:54:23.779Z,11.20
2019-03-28T17:56:53.188Z,11.20
2019-03-28T17:59:21.737Z,11.10
2019-03-28T18:01:50.165Z,11.10
2019-03-28T18:04:23.064Z,11.10
2019-03-28T18:06:50.429Z,11.10
2019-03-28T18:09:19.034Z,11.10
2019-03-28T18:11:47.834Z,11.10
2019-03-28T18:14:16.512Z,11.00
2019-03-28T18:16:45.008Z,11.00
2019-03-28T18:19:13.448Z,11.00
2019-03-28T18:21:41.880Z,11.10
2019-03-28T18:24:10.313Z,11.10
2019-03-28T18:26:38.737Z,11.10
2019-03-28T18:29:07.189Z,11.10
2019-03-28T18:31:49.409Z,11.10
2019-03-28T18:34:05.785Z,11.10
2019-03-28T18:36:34.238Z,11.10
2019-03-28T18:39:02.968Z,11.00
2019-03-28T18:41:31.703Z,11.00
2019-03-28T18:44:00.145Z,11.00
2019-03-28T18:46:28.634Z,11.00
2019-03-28T18:48:57.125Z,11.00
2019-03-28T18:51:25.546Z,11.10
2019-03-28T18:53:54.092Z,11.10
2019-03-28T18:56:22.557Z,11.10
2019-03-28T18:58:51.001Z,11.00
2019-03-28T19:01:19.429Z,11.00
2019-03-28T19:03:47.866Z,11.00
2019-03-28T19:06:16.998Z,11.10
2019-03-28T19:08:45.706Z,11.10
2019-03-28T19:11:14.168Z,11.10
2019-03-28T19:13:42.680Z,11.10
2019-03-28T19:16:11.112Z,11.00
2019-03-28T19:18:39.627Z,11.10
2019-03-28T19:21:08.057Z,11.10
2019-03-28T19:23:36.498Z,11.00
2019-03-28T19:26:04.921Z,11.00
2019-03-28T19:28:33.553Z,11.00
2019-03-28T19:31:02.037Z,11.00
2019-03-28T19:33:30.458Z,11.00
2019-03-28T19:36:01.441Z,11.00
2019-03-28T19:38:30.980Z,11.00
2019-03-28T19:40:59.461Z,11.10
2019-03-28T19:43:28.133Z,11.10
2019-03-28T19:45:57.061Z,11.10
2019-03-28T19:48:25.567Z,11.10
2019-03-28T19:50:54.163Z,11.00
2019-03-28T19:53:22.582Z,11.00
2019-03-28T19:55:51.349Z,11.00
2019-03-28T19:58:19.780Z,11.00
2019-03-28T20:00:48.229Z,11.00
2019-03-28T20:03:16.665Z,10.90
2019-03-28T20:05:47.935Z,10.90
2019-03-28T20:08:16.392Z,10.90
2019-03-28T20:10:45.425Z,10.90
2019-03-28T20:13:13.855Z,10.90
2019-03-28T20:15:42.297Z,10.90
2019-03-28T20:18:10.746Z,10.90
2019-03-28T20:20:39.200Z,10.90
2019-03-28T20:23:07.707Z,10.90
2019-03-28T20:25:36.128Z,10.90
2019-03-28T20:28:04.821Z,10.90
2019-03-28T20:30:39.991Z,10.80
2019-03-28T20:33:11.843Z,10.80
2019-03-28T20:35:40.697Z,10.80
2019-03-28T20:38:09.155Z,10.80
2019-03-28T20:40:37.794Z,10.80
2019-03-28T20:43:07.952Z,10.80
2019-03-28T20:45:36.956Z,10.70
2019-03-28T20:48:05.657Z,10.70
2019-03-28T20:50:34.096Z,10.80
2019-03-28T20:53:02.558Z,10.80
2019-03-28T20:55:31.002Z,10.80
2019-03-28T20:57:59.476Z,10.80
2019-03-28T21:00:36.985Z,10.70
2019-03-28T21:03:05.536Z,10.70
2019-03-28T21:05:34.045Z,10.70
2019-03-28T21:08:03.216Z,10.70
2019-03-28T21:10:33.447Z,10.60
2019-03-28T21:13:01.832Z,10.60
2019-03-28T21:15:30.253Z,10.60
2019-03-28T21:17:58.685Z,10.60
2019-03-28T21:20:27.114Z,10.60
2019-03-28T21:22:55.551Z,10.60
2019-03-28T21:25:23.981Z,10.60
2019-03-28T21:27:52.514Z,10.60
2019-03-28T21:30:21.227Z,10.50
2019-03-28T21:32:55.253Z,10.50
2019-03-28T21:35:19.821Z,10.50
2019-03-28T21:37:48.274Z,10.50
2019-03-28T21:40:16.697Z,10.50
2019-03-28T21:42:45.498Z,10.40
2019-03-28T21:45:14.958Z,10.40
2019-03-28T21:47:43.616Z,10.50
2019-03-28T21:50:12.078Z,10.50
2019-03-28T21:52:40.952Z,10.50
2019-03-28T21:55:11.475Z,10.50
2019-03-28T21:57:42.496Z,10.50
2019-03-28T22:00:11.979Z,10.50
2019-03-28T22:02:40.412Z,10.50
2019-03-28T22:05:09.419Z,10.40
2019-03-28T22:07:37.905Z,10.40
2019-03-28T22:10:08.856Z,10.40
2019-03-28T22:12:37.612Z,10.50
2019-03-28T22:15:07.788Z,10.60
2019-03-28T22:17:37.004Z,10.70
2019-03-28T22:20:06.887Z,10.70
2019-03-28T22:22:35.422Z,10.70
2019-03-28T22:25:05.799Z,10.70
2019-03-28T22:27:34.236Z,10.60
2019-03-28T22:30:04.908Z,10.60
2019-03-28T22:32:33.349Z,10.60
2019-03-28T22:35:01.847Z,10.50
2019-03-28T22:37:30.275Z,10.50
2019-03-28T22:39:58.700Z,10.50
2019-03-28T22:42:27.207Z,10.60
2019-03-28T22:44:55.648Z,10.60
2019-03-28T22:47:24.520Z,10.60
2019-03-28T22:49:52.955Z,10.60
2019-03-28T22:52:21.419Z,10.60
2019-03-28T22:54:49.846Z,10.70
2019-03-28T22:57:18.287Z,10.70
2019-03-28T22:59:46.721Z,10.70
2019-03-28T23:02:15.149Z,10.70
2019-03-28T23:04:43.629Z,10.70
2019-03-28T23:07:12.078Z,10.70
2019-03-28T23:09:40.512Z,10.70
2019-03-28T23:12:09.086Z,10.70
2019-03-28T23:14:37.752Z,10.60
2019-03-28T23:17:06.198Z,10.70
2019-03-28T23:19:34.654Z,10.70
2019-03-28T23:22:03.086Z,10.70
2019-03-28T23:24:31.516Z,10.70
2019-03-28T23:27:00.871Z,10.60
2019-03-28T23:29:29.454Z,10.60
2019-03-28T23:31:57.893Z,10.60
2019-03-28T23:34:26.353Z,10.70
2019-03-28T23:36:55.054Z,10.80
2019-03-28T23:39:23.497Z,10.90
2019-03-28T23:41:51.944Z,10.80
2019-03-28T23:44:20.364Z,10.80
2019-03-28T23:46:48.807Z,10.80
2019-03-28T23:49:17.241Z,10.80
2019-03-28T23:51:45.767Z,10.70
2019-03-28T23:54:14.229Z,10.70
2019-03-28T23:56:42.701Z,10.70
2019-03-28T23:59:11.147Z,10.70
